createdAt,value
2018-12-04T00:02:39.992Z,4.77
2018-12-04T00:07:42.976Z,4.97
2018-12-04T00:12:45.718Z,4.60
2018-12-04T00:17:48.719Z,4.50
2018-12-04T00:22:51.615Z,4.10
2018-12-04T00:27:54.384Z,4.43
2018-12-04T00:32:57.353Z,4.20
2018-12-04T00:38:00.232Z,4.13
2018-12-04T00:43:03.154Z,3.70
2018-12-04T00:48:06.055Z,3.33
2018-12-04T00:53:09.876Z,3.17
2018-12-04T00:58:12.566Z,3.43
2018-12-04T01:03:15.557Z,3.40
2018-12-04T01:08:18.507Z,3.20
2018-12-04T01:13:21.462Z,3.57
2018-12-04T01:18:25.381Z,3.20
2018-12-04T01:23:28.077Z,3.50
2018-12-04T01:28:31.049Z,3.37
2018-12-04T01:33:34.689Z,3.70
2018-12-04T01:38:37.433Z,4.13
2018-12-04T01:43:40.206Z,3.90
2018-12-04T01:48:43.094Z,4.00
2018-12-04T01:53:45.865Z,4.23
2018-12-04T01:58:48.721Z,4.40
2018-12-04T02:03:51.624Z,3.90
2018-12-04T02:08:54.425Z,4.50
2018-12-04T02:13:57.625Z,4.50
2018-12-04T02:19:00.564Z,5.37
2018-12-04T02:24:03.424Z,4.33
2018-12-04T02:29:06.636Z,4.03
2018-12-04T02:34:09.533Z,4.30
2018-12-04T02:39:12.477Z,4.60
2018-12-04T02:44:15.377Z,4.13
2018-12-04T02:49:18.133Z,4.70
2018-12-04T02:54:20.990Z,4.90
2018-12-04T02:59:23.901Z,4.70
2018-12-04T03:04:27.241Z,5.40
2018-12-04T03:09:30.102Z,4.53
2018-12-04T03:14:33.048Z,3.40
2018-12-04T03:19:35.736Z,2.17
2018-12-04T03:24:38.568Z,1.53
2018-12-04T03:29:41.352Z,1.30
2018-12-04T03:34:44.023Z,0.87
2018-12-04T03:39:48.049Z,1.00
2018-12-04T03:44:52.049Z,1.53
2018-12-04T03:49:54.917Z,1.17
2018-12-04T03:54:57.620Z,1.30
2018-12-04T04:00:00.491Z,1.30
2018-12-04T04:05:03.766Z,1.10
2018-12-04T04:10:07.495Z,1.13
2018-12-04T04:15:10.522Z,1.20
2018-12-04T04:20:13.292Z,1.77
2018-12-04T04:25:16.061Z,1.70
2018-12-04T04:30:18.739Z,1.87
2018-12-04T04:35:21.529Z,2.00
2018-12-04T04:40:24.309Z,1.70
2018-12-04T04:45:27.079Z,1.90
2018-12-04T04:50:29.853Z,1.90
2018-12-04T04:55:32.571Z,1.57
2018-12-04T05:00:35.625Z,2.07
2018-12-04T05:05:40.449Z,1.70
2018-12-04T05:10:43.365Z,1.53
2018-12-04T05:15:46.105Z,1.93
2018-12-04T05:20:48.834Z,2.00
2018-12-04T05:25:51.493Z,2.30
2018-12-04T05:30:54.243Z,2.50
2018-12-04T05:35:57.087Z,2.00
2018-12-04T05:40:59.981Z,2.30
2018-12-04T05:46:03.609Z,2.10
2018-12-04T05:51:06.511Z,2.37
2018-12-04T05:56:12.210Z,2.83
2018-12-04T06:01:15.428Z,3.10
2018-12-04T06:06:19.653Z,2.77
2018-12-04T06:11:22.685Z,2.70
2018-12-04T06:16:25.774Z,2.50
2018-12-04T06:21:28.857Z,3.17
2018-12-04T06:26:31.760Z,2.30
2018-12-04T06:31:41.444Z,2.60
2018-12-04T06:36:44.441Z,2.80
2018-12-04T06:41:47.204Z,2.80
2018-12-04T06:46:50.144Z,2.40
2018-12-04T06:51:53.115Z,2.93
2018-12-04T06:56:55.755Z,2.97
2018-12-04T07:01:58.838Z,2.57
2018-12-04T07:07:01.677Z,2.60
2018-12-04T07:12:04.605Z,3.00
2018-12-04T07:17:07.556Z,2.93
2018-12-04T07:22:10.381Z,2.87
2018-12-04T07:27:13.308Z,2.93
2018-12-04T07:32:16.105Z,2.90
2018-12-04T07:37:18.829Z,3.00
2018-12-04T07:42:21.738Z,3.10
2018-12-04T07:47:24.852Z,4.30
2018-12-04T07:52:27.601Z,3.57
2018-12-04T07:57:30.446Z,3.80
2018-12-04T08:02:33.214Z,3.60
2018-12-04T08:07:36.093Z,2.57
2018-12-04T08:12:38.893Z,3.07
2018-12-04T08:17:42.960Z,2.87
2018-12-04T08:22:46.002Z,3.07
2018-12-04T08:27:48.618Z,2.90
2018-12-04T08:32:51.533Z,2.63
2018-12-04T08:37:54.244Z,3.13
2018-12-04T08:42:57.037Z,2.43
2018-12-04T08:47:59.796Z,3.00
2018-12-04T08:53:02.731Z,2.67
2018-12-04T08:58:05.644Z,2.43
2018-12-04T09:03:08.567Z,2.83
2018-12-04T09:08:11.403Z,2.80
2018-12-04T09:13:14.393Z,2.97
2018-12-04T09:18:17.366Z,2.70
2018-12-04T09:23:20.325Z,2.67
2018-12-04T09:28:23.282Z,2.63
2018-12-04T09:33:26.449Z,2.73
2018-12-04T09:38:29.417Z,2.67
2018-12-04T09:43:32.227Z,2.97
2018-12-04T09:48:35.233Z,2.60
2018-12-04T09:53:39.017Z,2.57
2018-12-04T09:58:41.846Z,2.67
2018-12-04T10:03:44.678Z,3.33
2018-12-04T10:08:47.513Z,2.77
2018-12-04T10:13:50.433Z,3.00
2018-12-04T10:18:53.506Z,2.67
2018-12-04T10:23:56.579Z,2.63
2018-12-04T10:28:59.414Z,3.07
2018-12-04T10:34:02.361Z,2.53
2018-12-04T10:44:21.270Z,2.37
2018-12-04T10:49:26.997Z,2.67
2018-12-04T10:54:29.991Z,2.37
2018-12-04T10:59:32.826Z,2.77
2018-12-04T11:04:35.487Z,2.60
2018-12-04T11:09:38.343Z,2.30
2018-12-04T11:14:41.242Z,2.97
2018-12-04T11:19:44.013Z,2.20
2018-12-04T11:24:46.895Z,2.33
2018-12-04T11:29:49.698Z,2.23
2018-12-04T11:34:52.568Z,2.13
2018-12-04T11:39:55.352Z,3.00
2018-12-04T11:44:58.220Z,2.70
2018-12-04T11:50:01.008Z,2.50
2018-12-04T11:55:04.265Z,2.63
2018-12-04T12:00:16.817Z,2.60
2018-12-04T12:05:19.664Z,2.07
2018-12-04T12:10:24.656Z,2.10
2018-12-04T12:15:27.360Z,2.30
2018-12-04T12:20:30.113Z,2.50
2018-12-04T12:25:32.952Z,2.23
2018-12-04T12:30:35.736Z,2.30
2018-12-04T12:35:38.745Z,2.80
2018-12-04T12:40:41.467Z,2.53
2018-12-04T12:45:44.420Z,2.50
2018-12-04T12:50:47.199Z,2.57
2018-12-04T12:55:50.210Z,2.77
2018-12-04T13:00:53.007Z,2.40
2018-12-04T13:05:55.854Z,2.70
2018-12-04T13:10:58.761Z,2.27
2018-12-04T13:16:01.612Z,2.90
2018-12-04T13:21:04.602Z,2.63
2018-12-04T13:26:07.513Z,3.00
2018-12-04T13:31:10.327Z,2.50
2018-12-04T13:36:13.371Z,2.03
2018-12-04T13:41:16.209Z,2.33
2018-12-04T13:46:19.106Z,2.63
2018-12-04T13:51:22.008Z,1.97
2018-12-04T13:56:24.552Z,2.30
2018-12-04T14:01:27.315Z,2.40
2018-12-04T14:06:30.310Z,2.00
2018-12-04T14:11:33.286Z,2.03
2018-12-04T14:16:36.100Z,2.50
2018-12-04T14:21:38.983Z,2.70
2018-12-04T14:26:42.090Z,2.20
2018-12-04T14:31:45.216Z,2.87
2018-12-04T14:36:48.885Z,2.60
2018-12-04T14:41:52.024Z,2.60
2018-12-04T14:46:54.844Z,2.93
2018-12-04T14:51:57.885Z,2.10
2018-12-04T14:57:00.764Z,2.80
2018-12-04T15:02:03.884Z,2.53
2018-12-04T15:07:06.943Z,3.60
2018-12-04T15:12:10.017Z,2.37
2018-12-04T15:17:12.767Z,2.30
2018-12-04T15:22:15.580Z,2.80
2018-12-04T15:27:18.650Z,2.13
2018-12-04T15:32:21.365Z,2.60
2018-12-04T15:37:24.426Z,2.77
2018-12-04T15:42:27.406Z,3.27
2018-12-04T15:47:30.454Z,2.97
2018-12-04T15:52:33.430Z,3.13
2018-12-04T15:57:36.316Z,2.67
2018-12-04T16:02:39.398Z,2.90
2018-12-04T16:07:42.328Z,2.60
2018-12-04T16:12:45.291Z,3.00
2018-12-04T16:17:48.159Z,2.30
2018-12-04T16:22:50.911Z,2.80
2018-12-04T16:27:53.720Z,3.07
2018-12-04T16:32:56.570Z,2.73
2018-12-04T16:37:59.600Z,3.03
2018-12-04T16:43:02.428Z,2.80
2018-12-04T16:48:05.497Z,3.13
2018-12-04T16:53:08.286Z,3.27
2018-12-04T16:58:11.193Z,2.57
2018-12-04T17:03:14.065Z,3.10
2018-12-04T17:08:16.928Z,2.93
2018-12-04T17:13:19.965Z,2.63
2018-12-04T17:18:22.641Z,2.67
2018-12-04T17:23:25.898Z,2.83
2018-12-04T17:28:28.969Z,2.57
2018-12-04T17:33:32.131Z,2.90
2018-12-04T17:38:34.952Z,3.13
2018-12-04T17:43:37.854Z,2.90
2018-12-04T17:48:40.806Z,2.87
2018-12-04T17:53:43.540Z,2.90
2018-12-04T17:58:48.232Z,2.83
2018-12-04T18:03:50.887Z,2.93
2018-12-04T18:08:53.877Z,3.27
2018-12-04T18:13:58.701Z,3.40
2018-12-04T18:19:03.005Z,2.97
2018-12-04T18:24:06.037Z,4.17
2018-12-04T18:29:08.844Z,3.03
2018-12-04T18:34:11.689Z,3.23
2018-12-04T18:39:15.026Z,3.53
2018-12-04T18:44:18.629Z,3.40
2018-12-04T18:49:21.326Z,3.03
2018-12-04T18:54:24.171Z,2.80
2018-12-04T18:59:27.237Z,3.07
2018-12-04T19:04:30.214Z,3.27
2018-12-04T19:09:33.158Z,3.13
2018-12-04T19:14:36.180Z,3.40
2018-12-04T19:19:39.101Z,3.67
2018-12-04T19:24:41.917Z,3.40
2018-12-04T19:29:44.684Z,3.30
2018-12-04T19:34:47.586Z,2.90
2018-12-04T19:39:50.297Z,3.23
2018-12-04T19:44:53.115Z,3.90
2018-12-04T19:49:56.088Z,2.87
2018-12-04T19:54:59.057Z,2.60
2018-12-04T20:00:02.248Z,3.10
2018-12-04T20:05:06.749Z,2.40
2018-12-04T20:10:09.857Z,3.07
2018-12-04T20:15:13.164Z,3.23
2018-12-04T20:20:16.087Z,2.97
2018-12-04T20:25:19.300Z,3.10
2018-12-04T20:30:22.213Z,2.73
2018-12-04T20:35:25.087Z,3.42
2018-12-04T20:40:31.568Z,3.10
2018-12-04T20:45:32.973Z,2.63
2018-12-04T20:50:35.893Z,2.40
2018-12-04T20:55:38.833Z,2.87
2018-12-04T21:00:42.786Z,3.13
2018-12-04T21:05:45.786Z,3.07
2018-12-04T21:10:49.519Z,3.40
2018-12-04T21:15:52.365Z,3.40
2018-12-04T21:20:55.371Z,3.43
2018-12-04T21:25:58.215Z,3.10
2018-12-04T21:31:07.021Z,3.40
2018-12-04T21:36:15.865Z,2.70
2018-12-04T21:41:24.678Z,3.03
2018-12-04T21:46:33.726Z,2.40
2018-12-04T21:51:36.521Z,3.37
2018-12-04T21:56:39.433Z,3.10
2018-12-04T22:01:42.508Z,3.50
2018-12-04T22:06:45.286Z,2.87
2018-12-04T22:11:48.086Z,2.60
2018-12-04T22:16:50.891Z,2.67
2018-12-04T22:21:53.804Z,3.43
2018-12-04T22:26:56.693Z,3.17
2018-12-04T22:31:59.559Z,3.23
2018-12-04T22:37:02.424Z,2.73
2018-12-04T22:42:05.276Z,2.70
2018-12-04T22:47:08.278Z,2.43
2018-12-04T22:52:11.188Z,3.30
2018-12-04T22:57:14.006Z,2.90
2018-12-04T23:02:17.001Z,2.70
2018-12-04T23:07:19.985Z,2.80
2018-12-04T23:12:23.189Z,3.93
2018-12-04T23:17:26.230Z,3.10
2018-12-04T23:22:29.246Z,2.37
2018-12-04T23:27:32.132Z,2.73
2018-12-04T23:32:36.129Z,2.60
2018-12-04T23:37:39.192Z,3.00
2018-12-04T23:42:42.068Z,2.53
2018-12-04T23:47:44.902Z,3.10
2018-12-04T23:52:47.857Z,3.13
2018-12-04T23:57:50.801Z,2.83
